sensor_id;sensor_type;location;lat;lon;timestamp;pressure;altitude;pressure_sealevel;temperature;humidity
7376;BME280;3728;42.266;24.944;2023-02-20T00:00:17;99677.19;;;14.27;52.99
7376;BME280;3728;42.266;24.944;2023-02-20T00:02:50;99675.03;;;14.70;51.64
7376;BME280;3728;42.266;24.944;2023-02-20T00:05:18;99681.66;;;14.06;52.97
7376;BME280;3728;42.266;24.944;2023-02-20T00:07:47;99681.81;;;14.01;53.64
7376;BME280;3728;42.266;24.944;2023-02-20T00:10:15;99683.69;;;14.00;53.24
7376;BME280;3728;42.266;24.944;2023-02-20T00:12:43;99676.50;;;14.09;53.14
7376;BME280;3728;42.266;24.944;2023-02-20T00:15:14;99670.75;;;13.78;54.17
7376;BME280;3728;42.266;24.944;2023-02-20T00:17:45;99675.88;;;14.12;53.29
7376;BME280;3728;42.266;24.944;2023-02-20T00:20:14;99671.75;;;13.65;54.30
7376;BME280;3728;42.266;24.944;2023-02-20T00:22:43;99669.81;;;13.83;53.90
7376;BME280;3728;42.266;24.944;2023-02-20T00:25:19;99676.50;;;13.80;54.24
7376;BME280;3728;42.266;24.944;2023-02-20T00:27:47;99681.00;;;13.71;54.49
7376;BME280;3728;42.266;24.944;2023-02-20T00:30:17;99679.69;;;13.56;54.72
7376;BME280;3728;42.266;24.944;2023-02-20T00:32:48;99675.72;;;13.80;53.80
7376;BME280;3728;42.266;24.944;2023-02-20T00:35:18;99677.41;;;14.13;53.29
7376;BME280;3728;42.266;24.944;2023-02-20T00:37:46;99677.13;;;13.77;53.89
7376;BME280;3728;42.266;24.944;2023-02-20T00:40:15;99673.66;;;13.47;54.37
7376;BME280;3728;42.266;24.944;2023-02-20T00:42:44;99675.56;;;13.38;55.04
7376;BME280;3728;42.266;24.944;2023-02-20T00:45:14;99679.53;;;13.53;54.86
7376;BME280;3728;42.266;24.944;2023-02-20T00:47:42;99682.59;;;13.63;54.33
7376;BME280;3728;42.266;24.944;2023-02-20T00:50:13;99679.59;;;13.73;54.42
7376;BME280;3728;42.266;24.944;2023-02-20T00:52:43;99684.50;;;13.46;55.00
7376;BME280;3728;42.266;24.944;2023-02-20T00:55:11;99690.56;;;13.46;54.76
7376;BME280;3728;42.266;24.944;2023-02-20T00:57:39;99682.78;;;13.88;53.87
7376;BME280;3728;42.266;24.944;2023-02-20T01:00:09;99691.53;;;13.71;53.67
7376;BME280;3728;42.266;24.944;2023-02-20T01:02:49;99687.22;;;13.75;53.64
7376;BME280;3728;42.266;24.944;2023-02-20T01:05:20;99684.41;;;13.80;53.12
7376;BME280;3728;42.266;24.944;2023-02-20T01:07:48;99692.69;;;13.91;53.32
7376;BME280;3728;42.266;24.944;2023-02-20T01:10:16;99682.97;;;13.83;53.18
7376;BME280;3728;42.266;24.944;2023-02-20T01:12:44;99687.59;;;13.56;53.25
7376;BME280;3728;42.266;24.944;2023-02-20T01:15:13;99685.44;;;13.88;52.89
7376;BME280;3728;42.266;24.944;2023-02-20T01:17:41;99693.59;;;14.03;52.73
7376;BME280;3728;42.266;24.944;2023-02-20T01:20:09;99692.81;;;14.03;52.42
7376;BME280;3728;42.266;24.944;2023-02-20T01:22:37;99683.13;;;13.86;52.89
7376;BME280;3728;42.266;24.944;2023-02-20T01:25:05;99683.53;;;13.59;53.50
7376;BME280;3728;42.266;24.944;2023-02-20T01:27:32;99678.81;;;13.35;54.48
7376;BME280;3728;42.266;24.944;2023-02-20T01:30:00;99682.09;;;13.15;55.73
7376;BME280;3728;42.266;24.944;2023-02-20T01:32:28;99683.25;;;13.52;54.42
7376;BME280;3728;42.266;24.944;2023-02-20T01:34:55;99683.44;;;13.85;52.33
7376;BME280;3728;42.266;24.944;2023-02-20T01:37:22;99679.41;;;13.87;52.75
7376;BME280;3728;42.266;24.944;2023-02-20T01:39:51;99693.59;;;13.65;53.01
7376;BME280;3728;42.266;24.944;2023-02-20T01:42:21;99692.25;;;13.51;53.56
7376;BME280;3728;42.266;24.944;2023-02-20T01:44:53;99696.47;;;13.35;53.91
7376;BME280;3728;42.266;24.944;2023-02-20T01:47:22;99696.16;;;13.28;54.32
7376;BME280;3728;42.266;24.944;2023-02-20T01:49:55;99705.59;;;13.29;54.14
7376;BME280;3728;42.266;24.944;2023-02-20T01:52:30;99704.22;;;13.23;54.46
7376;BME280;3728;42.266;24.944;2023-02-20T01:55:09;99708.69;;;13.22;54.96
7376;BME280;3728;42.266;24.944;2023-02-20T01:57:54;99716.72;;;12.91;55.58
7376;BME280;3728;42.266;24.944;2023-02-20T02:00:25;99712.56;;;12.90;55.79
7376;BME280;3728;42.266;24.944;2023-02-20T02:03:03;99715.78;;;12.79;56.17
7376;BME280;3728;42.266;24.944;2023-02-20T02:05:35;99726.50;;;13.17;55.19
7376;BME280;3728;42.266;24.944;2023-02-20T02:08:09;99715.81;;;12.87;55.90
7376;BME280;3728;42.266;24.944;2023-02-20T02:13:34;99709.91;;;12.56;57.02
7376;BME280;3728;42.266;24.944;2023-02-20T02:16:10;99716.56;;;12.54;57.71
7376;BME280;3728;42.266;24.944;2023-02-20T02:43:16;99722.28;;;12.56;57.52
7376;BME280;3728;42.266;24.944;2023-02-20T02:46:00;99728.94;;;12.62;57.45
7376;BME280;3728;42.266;24.944;2023-02-20T02:49:00;99725.72;;;12.73;56.76
7376;BME280;3728;42.266;24.944;2023-02-20T02:51:34;99734.34;;;12.57;57.79
7376;BME280;3728;42.266;24.944;2023-02-20T02:56:42;99756.81;;;12.23;58.95
7376;BME280;3728;42.266;24.944;2023-02-20T02:59:19;99752.03;;;12.25;58.60
7376;BME280;3728;42.266;24.944;2023-02-20T03:01:54;99758.34;;;12.16;59.03
7376;BME280;3728;42.266;24.944;2023-02-20T03:04:32;99765.00;;;12.22;59.21
7376;BME280;3728;42.266;24.944;2023-02-20T03:07:07;99762.50;;;12.17;58.75
7376;BME280;3728;42.266;24.944;2023-02-20T03:09:41;99771.31;;;12.21;58.77
7376;BME280;3728;42.266;24.944;2023-02-20T03:12:14;99768.84;;;12.16;59.55
7376;BME280;3728;42.266;24.944;2023-02-20T03:14:49;99767.09;;;12.03;59.49
7376;BME280;3728;42.266;24.944;2023-02-20T03:17:57;99775.25;;;12.01;59.78
7376;BME280;3728;42.266;24.944;2023-02-20T03:21:09;99771.00;;;12.14;59.39
7376;BME280;3728;42.266;24.944;2023-02-20T03:23:45;99771.75;;;12.06;60.09
7376;BME280;3728;42.266;24.944;2023-02-20T03:26:25;99759.25;;;12.11;60.29
7376;BME280;3728;42.266;24.944;2023-02-20T03:31:36;99775.50;;;12.22;60.08
7376;BME280;3728;42.266;24.944;2023-02-20T03:34:13;99778.53;;;12.07;60.17
7376;BME280;3728;42.266;24.944;2023-02-20T03:37:18;99781.50;;;12.14;60.73
7376;BME280;3728;42.266;24.944;2023-02-20T03:40:10;99783.06;;;12.23;59.97
7376;BME280;3728;42.266;24.944;2023-02-20T03:43:10;99786.28;;;12.20;60.64
7376;BME280;3728;42.266;24.944;2023-02-20T03:46:04;99785.50;;;12.11;61.04
7376;BME280;3728;42.266;24.944;2023-02-20T03:48:42;99798.53;;;12.25;60.65
7376;BME280;3728;42.266;24.944;2023-02-20T03:51:13;99783.53;;;11.86;61.50
7376;BME280;3728;42.266;24.944;2023-02-20T03:53:59;99788.91;;;12.12;61.30
7376;BME280;3728;42.266;24.944;2023-02-20T03:56:31;99795.78;;;11.99;62.49
7376;BME280;3728;42.266;24.944;2023-02-20T03:59:17;99800.00;;;12.09;62.30
7376;BME280;3728;42.266;24.944;2023-02-20T04:01:49;99809.66;;;11.91;63.08
7376;BME280;3728;42.266;24.944;2023-02-20T04:04:38;99819.13;;;11.79;63.80
7376;BME280;3728;42.266;24.944;2023-02-20T04:07:23;99813.25;;;12.04;62.57
7376;BME280;3728;42.266;24.944;2023-02-20T04:09:58;99810.59;;;11.95;63.22
7376;BME280;3728;42.266;24.944;2023-02-20T04:12:33;99804.47;;;12.08;63.39
7376;BME280;3728;42.266;24.944;2023-02-20T04:15:04;99797.16;;;11.97;64.00
7376;BME280;3728;42.266;24.944;2023-02-20T04:17:39;99793.22;;;12.08;63.49
7376;BME280;3728;42.266;24.944;2023-02-20T04:20:14;99802.97;;;12.16;63.38
7376;BME280;3728;42.266;24.944;2023-02-20T04:22:52;99807.75;;;12.14;63.60
7376;BME280;3728;42.266;24.944;2023-02-20T04:25:45;99813.09;;;12.00;64.65
7376;BME280;3728;42.266;24.944;2023-02-20T04:28:16;99804.53;;;12.17;64.07
7376;BME280;3728;42.266;24.944;2023-02-20T04:30:53;99801.81;;;12.00;64.65
7376;BME280;3728;42.266;24.944;2023-02-20T04:33:21;99795.19;;;12.02;65.55
7376;BME280;3728;42.266;24.944;2023-02-20T04:35:52;99781.81;;;12.21;64.61
7376;BME280;3728;42.266;24.944;2023-02-20T04:38:23;99778.53;;;12.07;65.44
7376;BME280;3728;42.266;24.944;2023-02-20T04:40:51;99779.53;;;11.89;66.05
7376;BME280;3728;42.266;24.944;2023-02-20T04:43:41;99787.75;;;11.96;66.21
7376;BME280;3728;42.266;24.944;2023-02-20T04:46:08;99791.84;;;11.80;66.51
7376;BME280;3728;42.266;24.944;2023-02-20T04:48:36;99796.91;;;11.76;67.15
7376;BME280;3728;42.266;24.944;2023-02-20T04:51:04;99800.91;;;11.51;67.60
7376;BME280;3728;42.266;24.944;2023-02-20T04:53:33;99795.56;;;11.65;66.50
7376;BME280;3728;42.266;24.944;2023-02-20T04:56:02;99788.28;;;11.62;66.09
7376;BME280;3728;42.266;24.944;2023-02-20T04:58:35;99804.94;;;11.57;66.46
7376;BME280;3728;42.266;24.944;2023-02-20T05:01:12;99803.72;;;11.63;65.65
7376;BME280;3728;42.266;24.944;2023-02-20T05:03:40;99817.88;;;11.76;64.37
7376;BME280;3728;42.266;24.944;2023-02-20T05:06:07;99810.97;;;11.80;63.82
7376;BME280;3728;42.266;24.944;2023-02-20T05:08:35;99820.81;;;11.75;63.81
7376;BME280;3728;42.266;24.944;2023-02-20T05:11:23;99814.56;;;11.84;63.16
7376;BME280;3728;42.266;24.944;2023-02-20T05:13:51;99832.97;;;11.93;62.57
7376;BME280;3728;42.266;24.944;2023-02-20T05:16:18;99842.41;;;11.94;62.13
7376;BME280;3728;42.266;24.944;2023-02-20T05:18:46;99853.28;;;11.87;62.16
7376;BME280;3728;42.266;24.944;2023-02-20T05:21:14;99867.44;;;11.78;62.72
7376;BME280;3728;42.266;24.944;2023-02-20T05:24:00;99855.53;;;11.72;62.67
7376;BME280;3728;42.266;24.944;2023-02-20T05:26:29;99870.94;;;11.73;61.95
7376;BME280;3728;42.266;24.944;2023-02-20T05:28:58;99866.88;;;11.67;62.23
7376;BME280;3728;42.266;24.944;2023-02-20T05:31:25;99895.31;;;11.51;63.14
7376;BME280;3728;42.266;24.944;2023-02-20T05:33:53;99896.78;;;11.44;63.30
7376;BME280;3728;42.266;24.944;2023-02-20T05:36:20;99890.22;;;11.68;62.21
7376;BME280;3728;42.266;24.944;2023-02-20T05:38:48;99899.19;;;11.68;62.31
7376;BME280;3728;42.266;24.944;2023-02-20T05:41:15;99888.16;;;11.79;62.05
7376;BME280;3728;42.266;24.944;2023-02-20T05:43:44;99900.00;;;11.77;62.05
7376;BME280;3728;42.266;24.944;2023-02-20T05:46:14;99909.31;;;11.83;61.36
7376;BME280;3728;42.266;24.944;2023-02-20T05:48:42;99916.13;;;11.84;61.54
7376;BME280;3728;42.266;24.944;2023-02-20T05:51:27;99907.75;;;12.04;59.98
7376;BME280;3728;42.266;24.944;2023-02-20T05:53:55;99915.03;;;12.07;60.16
7376;BME280;3728;42.266;24.944;2023-02-20T05:56:23;99931.81;;;11.97;60.29
7376;BME280;3728;42.266;24.944;2023-02-20T05:58:53;99940.47;;;11.98;60.83
7376;BME280;3728;42.266;24.944;2023-02-20T06:01:23;99939.97;;;11.96;60.52
7376;BME280;3728;42.266;24.944;2023-02-20T06:03:52;99947.06;;;11.95;61.06
7376;BME280;3728;42.266;24.944;2023-02-20T06:06:20;99952.03;;;11.97;60.50
7376;BME280;3728;42.266;24.944;2023-02-20T06:08:48;99946.59;;;11.93;60.75
7376;BME280;3728;42.266;24.944;2023-02-20T06:11:15;99946.84;;;12.05;60.57
7376;BME280;3728;42.266;24.944;2023-02-20T06:13:44;99947.03;;;11.87;61.38
7376;BME280;3728;42.266;24.944;2023-02-20T06:16:12;99946.41;;;11.90;61.48
7376;BME280;3728;42.266;24.944;2023-02-20T06:18:50;99942.44;;;12.14;60.74
7376;BME280;3728;42.266;24.944;2023-02-20T06:21:19;99947.47;;;12.33;59.41
7376;BME280;3728;42.266;24.944;2023-02-20T06:23:49;99957.56;;;12.40;58.72
7376;BME280;3728;42.266;24.944;2023-02-20T06:26:18;99944.44;;;12.40;58.71
7376;BME280;3728;42.266;24.944;2023-02-20T06:28:49;99957.19;;;12.55;57.72
7376;BME280;3728;42.266;24.944;2023-02-20T06:31:22;99961.53;;;12.59;57.36
7376;BME280;3728;42.266;24.944;2023-02-20T06:33:51;99954.00;;;12.66;56.74
7376;BME280;3728;42.266;24.944;2023-02-20T06:36:25;99957.09;;;12.68;56.43
7376;BME280;3728;42.266;24.944;2023-02-20T06:38:55;99957.31;;;12.80;55.97
7376;BME280;3728;42.266;24.944;2023-02-20T06:41:24;99959.94;;;12.80;56.23
7376;BME280;3728;42.266;24.944;2023-02-20T06:43:51;99958.13;;;12.89;55.57
7376;BME280;3728;42.266;24.944;2023-02-20T06:46:20;99962.63;;;12.97;55.39
7376;BME280;3728;42.266;24.944;2023-02-20T06:48:56;99962.13;;;12.95;54.96
7376;BME280;3728;42.266;24.944;2023-02-20T06:51:28;99962.09;;;13.09;55.16
7376;BME280;3728;42.266;24.944;2023-02-20T06:53:57;99959.00;;;13.07;55.23
7376;BME280;3728;42.266;24.944;2023-02-20T06:56:28;99963.81;;;13.22;54.33
7376;BME280;3728;42.266;24.944;2023-02-20T06:58:57;99959.94;;;13.20;54.25
7376;BME280;3728;42.266;24.944;2023-02-20T07:01:29;99962.28;;;13.21;54.75
7376;BME280;3728;42.266;24.944;2023-02-20T07:03:58;99955.91;;;13.14;54.31
7376;BME280;3728;42.266;24.944;2023-02-20T07:06:28;99976.03;;;13.27;54.66
7376;BME280;3728;42.266;24.944;2023-02-20T07:08:55;99956.88;;;13.35;54.06
7376;BME280;3728;42.266;24.944;2023-02-20T07:11:23;99947.13;;;13.27;53.88
7376;BME280;3728;42.266;24.944;2023-02-20T07:13:51;99953.63;;;13.38;53.85
7376;BME280;3728;42.266;24.944;2023-02-20T07:16:18;99956.44;;;13.41;53.62
7376;BME280;3728;42.266;24.944;2023-02-20T07:18:46;99969.75;;;13.53;53.59
7376;BME280;3728;42.266;24.944;2023-02-20T07:21:13;99983.09;;;13.65;53.01
7376;BME280;3728;42.266;24.944;2023-02-20T07:23:43;99969.28;;;13.68;53.03
7376;BME280;3728;42.266;24.944;2023-02-20T07:26:23;99960.78;;;13.71;53.01
7376;BME280;3728;42.266;24.944;2023-02-20T07:28:53;99966.53;;;13.65;52.24
7376;BME280;3728;42.266;24.944;2023-02-20T07:31:24;99969.03;;;13.87;51.84
7376;BME280;3728;42.266;24.944;2023-02-20T07:33:52;99963.44;;;14.06;51.15
7376;BME280;3728;42.266;24.944;2023-02-20T07:36:20;99961.72;;;13.93;50.67
7376;BME280;3728;42.266;24.944;2023-02-20T07:38:57;99966.69;;;13.94;50.19
7376;BME280;3728;42.266;24.944;2023-02-20T07:41:29;99980.91;;;14.02;49.78
7376;BME280;3728;42.266;24.944;2023-02-20T07:43:58;99968.41;;;13.99;49.67
7376;BME280;3728;42.266;24.944;2023-02-20T07:46:26;99943.13;;;13.98;48.71
7376;BME280;3728;42.266;24.944;2023-02-20T07:48:54;99947.78;;;14.01;48.79
7376;BME280;3728;42.266;24.944;2023-02-20T07:51:21;99957.22;;;14.10;48.36
7376;BME280;3728;42.266;24.944;2023-02-20T07:53:50;99955.97;;;14.33;47.92
7376;BME280;3728;42.266;24.944;2023-02-20T07:56:19;99938.94;;;14.31;47.32
7376;BME280;3728;42.266;24.944;2023-02-20T07:58:47;99946.97;;;14.34;47.36
7376;BME280;3728;42.266;24.944;2023-02-20T08:01:16;99956.06;;;14.54;47.04
7376;BME280;3728;42.266;24.944;2023-02-20T08:03:44;99968.75;;;14.69;46.46
7376;BME280;3728;42.266;24.944;2023-02-20T08:06:16;99966.41;;;14.68;47.04
7376;BME280;3728;42.266;24.944;2023-02-20T08:08:48;99978.47;;;14.86;45.89
7376;BME280;3728;42.266;24.944;2023-02-20T08:11:20;99986.69;;;14.84;45.52
7376;BME280;3728;42.266;24.944;2023-02-20T08:13:48;99985.97;;;14.67;45.54
7376;BME280;3728;42.266;24.944;2023-02-20T08:16:16;99983.47;;;14.70;45.09
7376;BME280;3728;42.266;24.944;2023-02-20T08:18:47;99980.81;;;14.79;45.07
7376;BME280;3728;42.266;24.944;2023-02-20T08:21:14;99986.22;;;14.82;45.11
7376;BME280;3728;42.266;24.944;2023-02-20T08:23:42;99996.31;;;14.80;45.04
7376;BME280;3728;42.266;24.944;2023-02-20T08:26:10;99995.31;;;15.02;44.61
7376;BME280;3728;42.266;24.944;2023-02-20T08:28:38;99997.66;;;15.33;43.80
7376;BME280;3728;42.266;24.944;2023-02-20T08:31:06;100006.72;;;15.44;43.29
7376;BME280;3728;42.266;24.944;2023-02-20T08:33:33;99983.31;;;15.42;43.47
7376;BME280;3728;42.266;24.944;2023-02-20T08:36:01;99986.50;;;15.56;42.80
7376;BME280;3728;42.266;24.944;2023-02-20T08:38:33;99991.72;;;15.44;42.33
7376;BME280;3728;42.266;24.944;2023-02-20T08:41:08;99997.69;;;15.53;41.62
7376;BME280;3728;42.266;24.944;2023-02-20T08:43:39;99997.09;;;15.48;41.84
7376;BME280;3728;42.266;24.944;2023-02-20T08:46:10;100000.09;;;15.88;40.73
7376;BME280;3728;42.266;24.944;2023-02-20T08:48:38;100027.19;;;15.55;40.33
7376;BME280;3728;42.266;24.944;2023-02-20T08:51:06;100014.69;;;15.64;40.11
7376;BME280;3728;42.266;24.944;2023-02-20T08:53:35;100007.38;;;15.49;40.98
7376;BME280;3728;42.266;24.944;2023-02-20T08:56:05;100007.00;;;15.80;40.33
7376;BME280;3728;42.266;24.944;2023-02-20T08:58:34;100026.19;;;15.68;40.05
7376;BME280;3728;42.266;24.944;2023-02-20T09:01:01;100009.94;;;15.79;40.00
7376;BME280;3728;42.266;24.944;2023-02-20T09:03:30;100001.66;;;15.89;39.20
7376;BME280;3728;42.266;24.944;2023-02-20T09:05:59;99999.53;;;15.82;38.88
7376;BME280;3728;42.266;24.944;2023-02-20T09:08:27;100023.47;;;15.98;38.14
7376;BME280;3728;42.266;24.944;2023-02-20T09:10:55;99999.88;;;16.13;37.21
7376;BME280;3728;42.266;24.944;2023-02-20T09:13:22;99999.44;;;16.44;36.41
7376;BME280;3728;42.266;24.944;2023-02-20T09:15:50;99990.22;;;16.50;36.49
7376;BME280;3728;42.266;24.944;2023-02-20T09:18:17;99997.34;;;16.94;35.89
7376;BME280;3728;42.266;24.944;2023-02-20T09:20:45;99992.72;;;16.91;34.85
7376;BME280;3728;42.266;24.944;2023-02-20T09:23:13;100005.75;;;16.96;34.59
7376;BME280;3728;42.266;24.944;2023-02-20T09:25:41;100013.81;;;17.00;34.22
7376;BME280;3728;42.266;24.944;2023-02-20T09:28:08;100003.06;;;16.84;34.11
7376;BME280;3728;42.266;24.944;2023-02-20T09:30:36;100002.88;;;16.89;33.08
7376;BME280;3728;42.266;24.944;2023-02-20T09:33:03;100015.25;;;17.09;33.33
7376;BME280;3728;42.266;24.944;2023-02-20T09:35:31;100010.81;;;17.01;32.88
7376;BME280;3728;42.266;24.944;2023-02-20T09:37:59;100015.88;;;16.94;32.51
7376;BME280;3728;42.266;24.944;2023-02-20T09:40:29;100014.13;;;17.10;32.11
7376;BME280;3728;42.266;24.944;2023-02-20T09:46:14;100001.22;;;17.09;31.87
7376;BME280;3728;42.266;24.944;2023-02-20T09:52:07;100014.81;;;17.56;30.48
7376;BME280;3728;42.266;24.944;2023-02-20T09:54:46;100024.81;;;17.50;29.75
7376;BME280;3728;42.266;24.944;2023-02-20T09:57:21;100007.50;;;17.53;30.55
7376;BME280;3728;42.266;24.944;2023-02-20T10:00:05;99999.31;;;17.70;30.09
7376;BME280;3728;42.266;24.944;2023-02-20T10:02:46;100008.03;;;17.70;29.02
7376;BME280;3728;42.266;24.944;2023-02-20T10:05:27;100002.38;;;17.84;30.29
7376;BME280;3728;42.266;24.944;2023-02-20T10:07:55;100018.34;;;18.00;28.47
7376;BME280;3728;42.266;24.944;2023-02-20T10:10:27;100007.84;;;17.63;29.13
7376;BME280;3728;42.266;24.944;2023-02-20T10:13:37;100008.81;;;17.71;29.19
7376;BME280;3728;42.266;24.944;2023-02-20T10:19:30;100004.41;;;17.39;29.47
7376;BME280;3728;42.266;24.944;2023-02-20T10:22:17;100006.06;;;17.55;29.37
7376;BME280;3728;42.266;24.944;2023-02-20T10:28:12;100002.03;;;17.86;29.04
7376;BME280;3728;42.266;24.944;2023-02-20T10:30:45;99985.63;;;18.08;28.53
7376;BME280;3728;42.266;24.944;2023-02-20T10:33:35;99995.41;;;18.19;27.90
7376;BME280;3728;42.266;24.944;2023-02-20T10:36:37;99982.34;;;17.99;28.29
7376;BME280;3728;42.266;24.944;2023-02-20T10:39:11;99991.66;;;18.20;27.87
7376;BME280;3728;42.266;24.944;2023-02-20T10:44:38;99993.03;;;18.02;28.18
7376;BME280;3728;42.266;24.944;2023-02-20T10:50:17;99997.63;;;18.17;27.77
7376;BME280;3728;42.266;24.944;2023-02-20T10:53:21;99989.19;;;18.27;28.12
7376;BME280;3728;42.266;24.944;2023-02-20T11:01:35;99972.94;;;18.44;27.47
7376;BME280;3728;42.266;24.944;2023-02-20T11:04:11;99968.97;;;18.82;26.75
7376;BME280;3728;42.266;24.944;2023-02-20T11:06:46;99970.84;;;18.50;27.06
7376;BME280;3728;42.266;24.944;2023-02-20T11:09:20;99987.81;;;18.77;26.17
7376;BME280;3728;42.266;24.944;2023-02-20T11:11:48;99960.78;;;18.28;26.96
7376;BME280;3728;42.266;24.944;2023-02-20T11:14:41;99968.88;;;18.47;26.70
7376;BME280;3728;42.266;24.944;2023-02-20T11:17:15;99968.44;;;18.61;26.49
7376;BME280;3728;42.266;24.944;2023-02-20T11:19:53;99970.84;;;18.97;26.37
7376;BME280;3728;42.266;24.944;2023-02-20T11:22:46;99971.78;;;18.89;25.82
7376;BME280;3728;42.266;24.944;2023-02-20T11:25:16;99961.63;;;18.91;25.90
7376;BME280;3728;42.266;24.944;2023-02-20T11:27:54;99964.09;;;18.99;25.75
7376;BME280;3728;42.266;24.944;2023-02-20T11:30:33;99974.84;;;19.22;26.03
7376;BME280;3728;42.266;24.944;2023-02-20T11:33:24;99985.06;;;19.36;25.50
7376;BME280;3728;42.266;24.944;2023-02-20T11:38:39;99983.34;;;19.62;25.21
7376;BME280;3728;42.266;24.944;2023-02-20T11:41:33;99990.06;;;19.75;24.44
7376;BME280;3728;42.266;24.944;2023-02-20T11:44:15;99993.97;;;19.62;24.65
7376;BME280;3728;42.266;24.944;2023-02-20T11:47:18;99979.50;;;20.17;24.18
7376;BME280;3728;42.266;24.944;2023-02-20T11:50:17;99995.97;;;20.04;23.67
7376;BME280;3728;42.266;24.944;2023-02-20T11:52:56;100007.00;;;20.44;23.21
7376;BME280;3728;42.266;24.944;2023-02-20T11:55:31;99998.13;;;20.59;22.10
7376;BME280;3728;42.266;24.944;2023-02-20T11:58:01;100000.53;;;20.22;22.35
7376;BME280;3728;42.266;24.944;2023-02-20T12:00:45;99995.06;;;20.57;22.65
7376;BME280;3728;42.266;24.944;2023-02-20T12:03:20;99993.16;;;21.29;21.62
7376;BME280;3728;42.266;24.944;2023-02-20T12:05:50;100001.03;;;21.45;21.57
7376;BME280;3728;42.266;24.944;2023-02-20T12:11:26;100007.50;;;21.73;21.75
7376;BME280;3728;42.266;24.944;2023-02-20T12:13:56;99991.63;;;22.17;21.25
7376;BME280;3728;42.266;24.944;2023-02-20T12:22:37;99992.53;;;22.69;20.12
7376;BME280;3728;42.266;24.944;2023-02-20T12:34:15;99980.84;;;24.42;19.61
7376;BME280;3728;42.266;24.944;2023-02-20T13:01:05;99976.94;;;24.08;17.82
7376;BME280;3728;42.266;24.944;2023-02-20T13:09:41;99974.38;;;23.43;17.75
7376;BME280;3728;42.266;24.944;2023-02-20T13:12:18;99976.78;;;23.65;17.81
7376;BME280;3728;42.266;24.944;2023-02-20T13:20:53;100000.22;;;23.97;17.36
7376;BME280;3728;42.266;24.944;2023-02-20T13:25:52;99991.16;;;24.26;17.41
7376;BME280;3728;42.266;24.944;2023-02-20T13:31:17;99995.38;;;25.33;16.85
7376;BME280;3728;42.266;24.944;2023-02-20T13:36:44;99993.44;;;25.47;16.03
7376;BME280;3728;42.266;24.944;2023-02-20T13:47:28;99986.59;;;24.76;16.52
7376;BME280;3728;42.266;24.944;2023-02-20T13:49:59;99981.22;;;25.29;16.80
7376;BME280;3728;42.266;24.944;2023-02-20T13:55:24;99998.81;;;25.23;16.18
7376;BME280;3728;42.266;24.944;2023-02-20T14:00:52;100009.19;;;25.13;15.87
7376;BME280;3728;42.266;24.944;2023-02-20T14:03:22;100001.16;;;25.06;15.65
7376;BME280;3728;42.266;24.944;2023-02-20T14:08:45;100004.97;;;24.63;16.40
7376;BME280;3728;42.266;24.944;2023-02-20T14:11:25;99996.56;;;24.75;16.84
7376;BME280;3728;42.266;24.944;2023-02-20T14:16:52;100003.81;;;24.71;17.13
7376;BME280;3728;42.266;24.944;2023-02-20T14:19:37;99995.81;;;24.89;16.58
7376;BME280;3728;42.266;24.944;2023-02-20T14:27:39;99998.81;;;24.45;15.88
7376;BME280;3728;42.266;24.944;2023-02-20T14:30:22;100007.13;;;24.01;16.76
7376;BME280;3728;42.266;24.944;2023-02-20T14:32:54;99994.97;;;24.18;16.71
7376;BME280;3728;42.266;24.944;2023-02-20T14:35:32;99993.50;;;23.48;17.61
7376;BME280;3728;42.266;24.944;2023-02-20T14:38:17;100006.75;;;23.34;17.07
7376;BME280;3728;42.266;24.944;2023-02-20T14:41:19;100006.66;;;23.17;18.04
7376;BME280;3728;42.266;24.944;2023-02-20T14:44:00;100002.06;;;22.66;18.42
7376;BME280;3728;42.266;24.944;2023-02-20T14:46:34;100008.59;;;23.20;17.90
7376;BME280;3728;42.266;24.944;2023-02-20T14:49:13;100004.72;;;23.75;17.20
7376;BME280;3728;42.266;24.944;2023-02-20T14:51:42;100012.34;;;23.11;16.76
7376;BME280;3728;42.266;24.944;2023-02-20T14:56:48;100007.59;;;23.38;16.95
7376;BME280;3728;42.266;24.944;2023-02-20T14:59:26;100006.41;;;22.85;16.55
7376;BME280;3728;42.266;24.944;2023-02-20T15:02:00;100007.41;;;22.29;17.77
7376;BME280;3728;42.266;24.944;2023-02-20T15:05:03;100007.16;;;22.82;16.75
7376;BME280;3728;42.266;24.944;2023-02-20T15:07:37;100007.63;;;22.54;17.26
7376;BME280;3728;42.266;24.944;2023-02-20T15:10:34;100026.72;;;22.19;17.39
7376;BME280;3728;42.266;24.944;2023-02-20T15:13:09;100017.78;;;22.38;17.54
7376;BME280;3728;42.266;24.944;2023-02-20T15:15:40;100032.94;;;22.30;17.06
7376;BME280;3728;42.266;24.944;2023-02-20T15:18:15;100029.25;;;21.49;16.93
7376;BME280;3728;42.266;24.944;2023-02-20T15:21:01;100030.22;;;21.38;17.37
7376;BME280;3728;42.266;24.944;2023-02-20T15:23:34;100035.66;;;21.19;16.95
7376;BME280;3728;42.266;24.944;2023-02-20T15:26:35;100037.47;;;20.69;17.51
7376;BME280;3728;42.266;24.944;2023-02-20T15:29:27;100049.69;;;19.94;18.07
7376;BME280;3728;42.266;24.944;2023-02-20T15:32:00;100035.25;;;18.94;19.17
7376;BME280;3728;42.266;24.944;2023-02-20T15:34:34;100037.97;;;18.38;19.57
7376;BME280;3728;42.266;24.944;2023-02-20T15:37:30;100047.06;;;17.98;20.42
7376;BME280;3728;42.266;24.944;2023-02-20T15:40:29;100041.47;;;17.39;20.90
7376;BME280;3728;42.266;24.944;2023-02-20T15:42:58;100044.25;;;17.18;22.22
7376;BME280;3728;42.266;24.944;2023-02-20T15:45:33;100044.75;;;16.87;22.36
7376;BME280;3728;42.266;24.944;2023-02-20T15:48:03;100048.19;;;16.88;22.92
7376;BME280;3728;42.266;24.944;2023-02-20T15:50:32;100048.28;;;16.91;23.06
7376;BME280;3728;42.266;24.944;2023-02-20T15:53:01;100043.63;;;16.76;23.57
7376;BME280;3728;42.266;24.944;2023-02-20T15:55:32;100069.66;;;16.54;24.39
7376;BME280;3728;42.266;24.944;2023-02-20T15:58:01;100065.94;;;16.55;24.14
7376;BME280;3728;42.266;24.944;2023-02-20T16:00:36;100065.25;;;16.25;25.45
7376;BME280;3728;42.266;24.944;2023-02-20T16:03:04;100063.38;;;16.05;25.52
7376;BME280;3728;42.266;24.944;2023-02-20T16:05:31;100070.50;;;15.84;25.63
7376;BME280;3728;42.266;24.944;2023-02-20T16:07:59;100075.00;;;15.83;26.14
7376;BME280;3728;42.266;24.944;2023-02-20T16:10:26;100081.22;;;15.58;26.20
7376;BME280;3728;42.266;24.944;2023-02-20T16:12:56;100088.00;;;15.67;26.70